sensor_id;sensor_type;location;lat;lon;timestamp;temperature;humidity
71672;DHT22;67659;45.554;11.812;2023-06-10T00:01:27;22.40;99.90
71672;DHT22;67659;45.554;11.812;2023-06-10T00:03:54;22.40;99.90
71672;DHT22;67659;45.554;11.812;2023-06-10T00:06:20;22.20;99.90
71672;DHT22;67659;45.554;11.812;2023-06-10T00:08:47;22.10;99.90
71672;DHT22;67659;45.554;11.812;2023-06-10T00:11:13;22.20;99.90
71672;DHT22;67659;45.554;11.812;2023-06-10T00:13:39;22.20;99.90
71672;DHT22;67659;45.554;11.812;2023-06-10T00:16:05;22.20;99.90
71672;DHT22;67659;45.554;11.812;2023-06-10T00:18:31;22.20;99.90
71672;DHT22;67659;45.554;11.812;2023-06-10T00:20:57;22.20;99.90
71672;DHT22;67659;45.554;11.812;2023-06-10T00:23:29;22.50;99.90
71672;DHT22;67659;45.554;11.812;2023-06-10T00:25:58;22.50;99.90
71672;DHT22;67659;45.554;11.812;2023-06-10T00:28:24;22.40;99.90
71672;DHT22;67659;45.554;11.812;2023-06-10T00:30:51;22.50;99.90
71672;DHT22;67659;45.554;11.812;2023-06-10T00:33:17;22.50;99.90
71672;DHT22;67659;45.554;11.812;2023-06-10T00:35:42;22.40;99.90
71672;DHT22;67659;45.554;11.812;2023-06-10T00:38:08;22.50;99.90
71672;DHT22;67659;45.554;11.812;2023-06-10T00:40:39;22.50;99.90
71672;DHT22;67659;45.554;11.812;2023-06-10T00:43:06;22.50;99.90
71672;DHT22;67659;45.554;11.812;2023-06-10T00:45:33;22.30;99.90
71672;DHT22;67659;45.554;11.812;2023-06-10T00:48:00;22.20;99.90
71672;DHT22;67659;45.554;11.812;2023-06-10T00:50:26;22.10;99.90
71672;DHT22;67659;45.554;11.812;2023-06-10T00:52:54;21.80;99.90
71672;DHT22;67659;45.554;11.812;2023-06-10T00:55:20;22.10;99.90
71672;DHT22;67659;45.554;11.812;2023-06-10T00:57:47;22.10;99.90
71672;DHT22;67659;45.554;11.812;2023-06-10T01:00:17;22.10;99.90
71672;DHT22;67659;45.554;11.812;2023-06-10T01:02:43;22.10;99.90
71672;DHT22;67659;45.554;11.812;2023-06-10T01:05:09;22.20;99.90
71672;DHT22;67659;45.554;11.812;2023-06-10T01:08:01;22.10;99.90
71672;DHT22;67659;45.554;11.812;2023-06-10T01:10:31;22.30;99.90
71672;DHT22;67659;45.554;11.812;2023-06-10T01:13:02;22.30;99.90
71672;DHT22;67659;45.554;11.812;2023-06-10T01:15:31;22.30;99.90
71672;DHT22;67659;45.554;11.812;2023-06-10T01:17:59;22.30;99.90
71672;DHT22;67659;45.554;11.812;2023-06-10T01:20:26;22.20;99.90
71672;DHT22;67659;45.554;11.812;2023-06-10T01:22:54;22.40;99.90
71672;DHT22;67659;45.554;11.812;2023-06-10T01:25:21;22.30;99.90
71672;DHT22;67659;45.554;11.812;2023-06-10T01:30:30;22.20;99.90
71672;DHT22;67659;45.554;11.812;2023-06-10T01:32:58;22.20;99.90
71672;DHT22;67659;45.554;11.812;2023-06-10T01:35:25;22.20;99.90
71672;DHT22;67659;45.554;11.812;2023-06-10T01:37:54;22.20;99.90
71672;DHT22;67659;45.554;11.812;2023-06-10T01:40:23;22.10;99.90
71672;DHT22;67659;45.554;11.812;2023-06-10T01:42:49;22.00;99.90
71672;DHT22;67659;45.554;11.812;2023-06-10T01:45:17;22.00;99.90
71672;DHT22;67659;45.554;11.812;2023-06-10T01:47:43;22.00;99.90
71672;DHT22;67659;45.554;11.812;2023-06-10T01:50:09;22.10;99.90
71672;DHT22;67659;45.554;11.812;2023-06-10T01:52:37;22.00;99.90
71672;DHT22;67659;45.554;11.812;2023-06-10T01:55:03;22.00;99.90
71672;DHT22;67659;45.554;11.812;2023-06-10T01:57:29;22.10;99.90
71672;DHT22;67659;45.554;11.812;2023-06-10T01:59:55;22.10;99.90
71672;DHT22;67659;45.554;11.812;2023-06-10T02:02:21;22.00;99.90
71672;DHT22;67659;45.554;11.812;2023-06-10T02:04:47;22.10;99.90
71672;DHT22;67659;45.554;11.812;2023-06-10T02:07:13;21.90;99.90
71672;DHT22;67659;45.554;11.812;2023-06-10T02:09:39;21.90;99.90
71672;DHT22;67659;45.554;11.812;2023-06-10T02:12:05;21.80;99.90
71672;DHT22;67659;45.554;11.812;2023-06-10T02:14:32;21.70;99.90
71672;DHT22;67659;45.554;11.812;2023-06-10T02:16:58;21.70;99.90
71672;DHT22;67659;45.554;11.812;2023-06-10T02:19:24;21.60;99.90
71672;DHT22;67659;45.554;11.812;2023-06-10T02:21:53;21.70;99.90
71672;DHT22;67659;45.554;11.812;2023-06-10T02:24:18;21.60;99.90
71672;DHT22;67659;45.554;11.812;2023-06-10T02:26:44;21.70;99.90
71672;DHT22;67659;45.554;11.812;2023-06-10T02:29:10;21.70;99.90
71672;DHT22;67659;45.554;11.812;2023-06-10T02:31:37;21.70;99.90
71672;DHT22;67659;45.554;11.812;2023-06-10T02:34:03;21.70;99.90
71672;DHT22;67659;45.554;11.812;2023-06-10T02:36:29;21.80;99.90
71672;DHT22;67659;45.554;11.812;2023-06-10T02:38:55;21.80;99.90
71672;DHT22;67659;45.554;11.812;2023-06-10T02:41:21;21.70;99.90
71672;DHT22;67659;45.554;11.812;2023-06-10T02:43:47;21.80;99.90
71672;DHT22;67659;45.554;11.812;2023-06-10T02:46:13;21.80;99.90
71672;DHT22;67659;45.554;11.812;2023-06-10T02:48:43;21.80;99.90
71672;DHT22;67659;45.554;11.812;2023-06-10T02:51:10;21.70;99.90
71672;DHT22;67659;45.554;11.812;2023-06-10T02:53:36;21.80;99.90
71672;DHT22;67659;45.554;11.812;2023-06-10T02:56:02;21.80;99.90
71672;DHT22;67659;45.554;11.812;2023-06-10T02:58:28;21.70;99.90
71672;DHT22;67659;45.554;11.812;2023-06-10T03:00:54;21.80;99.90
71672;DHT22;67659;45.554;11.812;2023-06-10T03:03:20;21.80;99.90
71672;DHT22;67659;45.554;11.812;2023-06-10T03:05:48;21.90;99.90
71672;DHT22;67659;45.554;11.812;2023-06-10T03:08:14;21.90;99.90
71672;DHT22;67659;45.554;11.812;2023-06-10T03:10:40;22.00;99.90
71672;DHT22;67659;45.554;11.812;2023-06-10T03:13:06;21.90;99.90
71672;DHT22;67659;45.554;11.812;2023-06-10T03:15:32;22.00;99.90
71672;DHT22;67659;45.554;11.812;2023-06-10T03:18:00;21.90;99.90
71672;DHT22;67659;45.554;11.812;2023-06-10T03:20:26;21.90;99.90
71672;DHT22;67659;45.554;11.812;2023-06-10T03:22:53;21.90;99.90
71672;DHT22;67659;45.554;11.812;2023-06-10T03:25:19;21.90;99.90
71672;DHT22;67659;45.554;11.812;2023-06-10T03:27:46;21.90;99.90
71672;DHT22;67659;45.554;11.812;2023-06-10T03:30:13;21.80;99.90
71672;DHT22;67659;45.554;11.812;2023-06-10T03:32:39;21.70;99.90
71672;DHT22;67659;45.554;11.812;2023-06-10T03:35:07;21.70;99.90
71672;DHT22;67659;45.554;11.812;2023-06-10T03:37:33;21.80;99.90
71672;DHT22;67659;45.554;11.812;2023-06-10T03:39:59;22.00;99.90
71672;DHT22;67659;45.554;11.812;2023-06-10T03:42:25;22.00;99.90
71672;DHT22;67659;45.554;11.812;2023-06-10T03:44:51;21.90;99.90
71672;DHT22;67659;45.554;11.812;2023-06-10T03:47:17;21.90;99.90
71672;DHT22;67659;45.554;11.812;2023-06-10T03:49:43;21.70;99.90
71672;DHT22;67659;45.554;11.812;2023-06-10T03:52:09;21.80;99.90
71672;DHT22;67659;45.554;11.812;2023-06-10T03:54:34;21.90;99.90
71672;DHT22;67659;45.554;11.812;2023-06-10T03:57:01;22.00;99.90
71672;DHT22;67659;45.554;11.812;2023-06-10T03:59:26;22.20;99.90
71672;DHT22;67659;45.554;11.812;2023-06-10T04:01:52;22.20;99.90
71672;DHT22;67659;45.554;11.812;2023-06-10T04:04:18;22.30;99.90
71672;DHT22;67659;45.554;11.812;2023-06-10T04:06:44;22.40;99.90
71672;DHT22;67659;45.554;11.812;2023-06-10T04:09:10;22.40;99.90
71672;DHT22;67659;45.554;11.812;2023-06-10T04:11:36;22.40;99.90
71672;DHT22;67659;45.554;11.812;2023-06-10T04:14:02;22.50;99.90
71672;DHT22;67659;45.554;11.812;2023-06-10T04:16:28;22.50;99.90
71672;DHT22;67659;45.554;11.812;2023-06-10T04:18:54;22.40;99.90
71672;DHT22;67659;45.554;11.812;2023-06-10T04:21:21;22.50;99.90
71672;DHT22;67659;45.554;11.812;2023-06-10T04:23:47;22.50;99.90
71672;DHT22;67659;45.554;11.812;2023-06-10T04:26:14;22.60;99.90
71672;DHT22;67659;45.554;11.812;2023-06-10T04:28:43;22.60;99.90
71672;DHT22;67659;45.554;11.812;2023-06-10T04:31:09;22.60;99.90
71672;DHT22;67659;45.554;11.812;2023-06-10T04:33:35;22.60;99.90
71672;DHT22;67659;45.554;11.812;2023-06-10T04:36:02;22.60;99.90
71672;DHT22;67659;45.554;11.812;2023-06-10T04:38:28;22.50;99.90
71672;DHT22;67659;45.554;11.812;2023-06-10T04:40:54;22.40;99.90
71672;DHT22;67659;45.554;11.812;2023-06-10T04:43:20;22.30;99.90
71672;DHT22;67659;45.554;11.812;2023-06-10T04:45:46;22.50;99.90
71672;DHT22;67659;45.554;11.812;2023-06-10T04:48:12;22.50;99.90
71672;DHT22;67659;45.554;11.812;2023-06-10T04:50:39;22.60;99.90
71672;DHT22;67659;45.554;11.812;2023-06-10T04:53:05;22.70;99.90
71672;DHT22;67659;45.554;11.812;2023-06-10T04:55:31;22.80;99.90
71672;DHT22;67659;45.554;11.812;2023-06-10T04:57:59;22.80;99.90
71672;DHT22;67659;45.554;11.812;2023-06-10T05:00:25;22.80;99.90
71672;DHT22;67659;45.554;11.812;2023-06-10T05:02:51;22.90;99.90
71672;DHT22;67659;45.554;11.812;2023-06-10T05:05:18;22.90;99.90
71672;DHT22;67659;45.554;11.812;2023-06-10T05:07:44;22.70;99.90
71672;DHT22;67659;45.554;11.812;2023-06-10T05:10:10;22.60;99.90
71672;DHT22;67659;45.554;11.812;2023-06-10T05:12:38;22.70;99.90
71672;DHT22;67659;45.554;11.812;2023-06-10T05:15:06;22.80;99.90
71672;DHT22;67659;45.554;11.812;2023-06-10T05:17:32;22.80;99.90
71672;DHT22;67659;45.554;11.812;2023-06-10T05:19:57;23.00;99.90
71672;DHT22;67659;45.554;11.812;2023-06-10T05:22:23;23.00;99.90
71672;DHT22;67659;45.554;11.812;2023-06-10T05:24:53;23.10;99.90
71672;DHT22;67659;45.554;11.812;2023-06-10T05:27:19;23.10;99.90
71672;DHT22;67659;45.554;11.812;2023-06-10T05:29:44;23.20;99.90
71672;DHT22;67659;45.554;11.812;2023-06-10T05:32:11;23.30;99.90
71672;DHT22;67659;45.554;11.812;2023-06-10T05:34:37;23.50;99.90
71672;DHT22;67659;45.554;11.812;2023-06-10T05:37:03;23.70;99.90
71672;DHT22;67659;45.554;11.812;2023-06-10T05:39:29;23.60;99.90
71672;DHT22;67659;45.554;11.812;2023-06-10T05:41:55;23.80;99.90
71672;DHT22;67659;45.554;11.812;2023-06-10T05:44:21;23.90;99.90
71672;DHT22;67659;45.554;11.812;2023-06-10T05:46:46;24.00;99.90
71672;DHT22;67659;45.554;11.812;2023-06-10T05:49:12;24.20;99.90
71672;DHT22;67659;45.554;11.812;2023-06-10T05:51:38;24.50;99.90
71672;DHT22;67659;45.554;11.812;2023-06-10T05:54:04;24.70;99.90
71672;DHT22;67659;45.554;11.812;2023-06-10T05:56:30;24.90;99.90
71672;DHT22;67659;45.554;11.812;2023-06-10T05:58:56;25.60;99.90
71672;DHT22;67659;45.554;11.812;2023-06-10T06:01:21;26.10;99.90
71672;DHT22;67659;45.554;11.812;2023-06-10T06:03:47;26.50;94.20
71672;DHT22;67659;45.554;11.812;2023-06-10T06:06:13;27.00;92.40
71672;DHT22;67659;45.554;11.812;2023-06-10T06:08:39;27.50;89.80
71672;DHT22;67659;45.554;11.812;2023-06-10T06:11:05;27.50;90.50
71672;DHT22;67659;45.554;11.812;2023-06-10T06:13:30;27.50;89.00
71672;DHT22;67659;45.554;11.812;2023-06-10T06:15:56;27.30;90.60
71672;DHT22;67659;45.554;11.812;2023-06-10T06:18:22;27.30;89.90
71672;DHT22;67659;45.554;11.812;2023-06-10T06:20:48;27.00;89.00
71672;DHT22;67659;45.554;11.812;2023-06-10T06:23:14;26.90;90.70
71672;DHT22;67659;45.554;11.812;2023-06-10T06:25:40;26.90;91.20
71672;DHT22;67659;45.554;11.812;2023-06-10T06:28:10;26.90;92.90
71672;DHT22;67659;45.554;11.812;2023-06-10T06:30:36;26.70;91.40
71672;DHT22;67659;45.554;11.812;2023-06-10T06:33:02;26.60;91.80
71672;DHT22;67659;45.554;11.812;2023-06-10T06:35:30;26.60;93.10
71672;DHT22;67659;45.554;11.812;2023-06-10T06:37:55;26.50;92.60
71672;DHT22;67659;45.554;11.812;2023-06-10T06:40:22;26.70;93.10
71672;DHT22;67659;45.554;11.812;2023-06-10T06:42:48;27.00;92.20
71672;DHT22;67659;45.554;11.812;2023-06-10T06:45:13;27.30;91.00
71672;DHT22;67659;45.554;11.812;2023-06-10T06:47:40;27.70;89.70
71672;DHT22;67659;45.554;11.812;2023-06-10T06:50:09;28.00;88.40
71672;DHT22;67659;45.554;11.812;2023-06-10T06:52:35;28.50;87.10
71672;DHT22;67659;45.554;11.812;2023-06-10T06:55:01;29.10;86.00
71672;DHT22;67659;45.554;11.812;2023-06-10T06:57:26;29.70;85.20
71672;DHT22;67659;45.554;11.812;2023-06-10T06:59:52;30.30;82.80
71672;DHT22;67659;45.554;11.812;2023-06-10T07:02:18;30.90;82.40
71672;DHT22;67659;45.554;11.812;2023-06-10T07:04:44;31.20;81.00
71672;DHT22;67659;45.554;11.812;2023-06-10T07:07:11;31.30;80.60
71672;DHT22;67659;45.554;11.812;2023-06-10T07:09:38;31.40;79.90
71672;DHT22;67659;45.554;11.812;2023-06-10T07:12:04;31.30;79.10
71672;DHT22;67659;45.554;11.812;2023-06-10T07:14:40;31.20;79.80
71672;DHT22;67659;45.554;11.812;2023-06-10T07:17:06;31.10;78.10
71672;DHT22;67659;45.554;11.812;2023-06-10T07:19:32;31.10;79.30
71672;DHT22;67659;45.554;11.812;2023-06-10T07:21:57;30.70;79.50
71672;DHT22;67659;45.554;11.812;2023-06-10T07:24:23;30.30;80.10
71672;DHT22;67659;45.554;11.812;2023-06-10T07:26:50;30.00;80.20
71672;DHT22;67659;45.554;11.812;2023-06-10T07:29:16;29.80;80.80
71672;DHT22;67659;45.554;11.812;2023-06-10T07:31:44;29.80;80.70
71672;DHT22;67659;45.554;11.812;2023-06-10T07:34:10;29.70;80.50
71672;DHT22;67659;45.554;11.812;2023-06-10T07:36:36;29.40;80.70
71672;DHT22;67659;45.554;11.812;2023-06-10T07:39:02;29.20;81.60
71672;DHT22;67659;45.554;11.812;2023-06-10T07:41:28;29.10;81.70
71672;DHT22;67659;45.554;11.812;2023-06-10T07:43:54;29.20;81.70
71672;DHT22;67659;45.554;11.812;2023-06-10T07:46:22;29.60;80.90
71672;DHT22;67659;45.554;11.812;2023-06-10T07:48:48;29.90;79.70
71672;DHT22;67659;45.554;11.812;2023-06-10T07:51:15;30.30;79.80
71672;DHT22;67659;45.554;11.812;2023-06-10T07:53:41;30.70;79.20
71672;DHT22;67659;45.554;11.812;2023-06-10T07:56:07;30.90;78.20
71672;DHT22;67659;45.554;11.812;2023-06-10T07:58:33;30.70;77.60
71672;DHT22;67659;45.554;11.812;2023-06-10T08:00:59;30.30;78.40
71672;DHT22;67659;45.554;11.812;2023-06-10T08:03:25;29.90;78.10
71672;DHT22;67659;45.554;11.812;2023-06-10T08:05:50;29.70;79.50
71672;DHT22;67659;45.554;11.812;2023-06-10T08:08:16;29.70;79.60
71672;DHT22;67659;45.554;11.812;2023-06-10T08:10:42;29.70;80.00
71672;DHT22;67659;45.554;11.812;2023-06-10T08:13:08;29.60;79.20
71672;DHT22;67659;45.554;11.812;2023-06-10T08:15:34;29.70;79.70
71672;DHT22;67659;45.554;11.812;2023-06-10T08:18:00;29.70;79.80
71672;DHT22;67659;45.554;11.812;2023-06-10T08:20:26;29.70;79.90
71672;DHT22;67659;45.554;11.812;2023-06-10T08:22:52;29.60;80.30
71672;DHT22;67659;45.554;11.812;2023-06-10T08:25:18;29.50;80.80
71672;DHT22;67659;45.554;11.812;2023-06-10T08:27:44;29.50;81.10
71672;DHT22;67659;45.554;11.812;2023-06-10T08:30:11;29.60;81.30
71672;DHT22;67659;45.554;11.812;2023-06-10T08:32:38;29.50;80.70
71672;DHT22;67659;45.554;11.812;2023-06-10T08:35:04;29.40;80.60
71672;DHT22;67659;45.554;11.812;2023-06-10T08:37:30;29.40;79.80
71672;DHT22;67659;45.554;11.812;2023-06-10T08:39:56;29.20;79.00
71672;DHT22;67659;45.554;11.812;2023-06-10T08:42:33;29.20;79.30
71672;DHT22;67659;45.554;11.812;2023-06-10T08:45:02;29.10;80.20
71672;DHT22;67659;45.554;11.812;2023-06-10T08:47:29;29.10;80.80
71672;DHT22;67659;45.554;11.812;2023-06-10T08:50:03;29.20;81.60
71672;DHT22;67659;45.554;11.812;2023-06-10T08:52:35;29.10;81.50
71672;DHT22;67659;45.554;11.812;2023-06-10T08:57:35;28.80;81.30
71672;DHT22;67659;45.554;11.812;2023-06-10T09:00:02;28.80;81.60
71672;DHT22;67659;45.554;11.812;2023-06-10T09:02:28;28.80;81.50
71672;DHT22;67659;45.554;11.812;2023-06-10T09:04:56;28.80;81.30
71672;DHT22;67659;45.554;11.812;2023-06-10T09:07:23;28.90;80.90
71672;DHT22;67659;45.554;11.812;2023-06-10T09:09:49;29.20;80.00
71672;DHT22;67659;45.554;11.812;2023-06-10T09:12:15;29.50;79.80
71672;DHT22;67659;45.554;11.812;2023-06-10T09:14:42;29.90;79.20
71672;DHT22;67659;45.554;11.812;2023-06-10T09:17:08;30.60;78.30
71672;DHT22;67659;45.554;11.812;2023-06-10T09:19:35;31.30;77.60
71672;DHT22;67659;45.554;11.812;2023-06-10T09:22:02;31.60;75.20
71672;DHT22;67659;45.554;11.812;2023-06-10T09:24:29;31.70;75.60
71672;DHT22;67659;45.554;11.812;2023-06-10T09:27:06;31.60;76.00
71672;DHT22;67659;45.554;11.812;2023-06-10T09:32:18;30.80;76.40
71672;DHT22;67659;45.554;11.812;2023-06-10T09:34:45;30.80;76.60
71672;DHT22;67659;45.554;11.812;2023-06-10T09:37:11;30.40;77.60
71672;DHT22;67659;45.554;11.812;2023-06-10T09:39:39;30.20;77.10
71672;DHT22;67659;45.554;11.812;2023-06-10T09:42:16;30.20;77.40
71672;DHT22;67659;45.554;11.812;2023-06-10T09:44:51;30.10;78.60
71672;DHT22;67659;45.554;11.812;2023-06-10T09:47:24;30.00;78.30
71672;DHT22;67659;45.554;11.812;2023-06-10T09:49:53;30.00;79.50
71672;DHT22;67659;45.554;11.812;2023-06-10T09:52:27;30.00;79.00
71672;DHT22;67659;45.554;11.812;2023-06-10T09:54:55;30.10;78.70
71672;DHT22;67659;45.554;11.812;2023-06-10T09:57:24;29.90;78.60
71672;DHT22;67659;45.554;11.812;2023-06-10T09:59:54;29.70;77.30
71672;DHT22;67659;45.554;11.812;2023-06-10T10:02:20;29.70;78.40
71672;DHT22;67659;45.554;11.812;2023-06-10T10:04:46;29.70;78.70
71672;DHT22;67659;45.554;11.812;2023-06-10T10:07:12;29.70;78.70
71672;DHT22;67659;45.554;11.812;2023-06-10T10:09:39;29.80;78.70
71672;DHT22;67659;45.554;11.812;2023-06-10T10:12:10;29.80;78.50
71672;DHT22;67659;45.554;11.812;2023-06-10T10:14:37;29.80;77.80
71672;DHT22;67659;45.554;11.812;2023-06-10T10:17:07;29.90;77.70
71672;DHT22;67659;45.554;11.812;2023-06-10T10:19:40;30.40;77.40
71672;DHT22;67659;45.554;11.812;2023-06-10T10:22:11;31.20;76.70
71672;DHT22;67659;45.554;11.812;2023-06-10T10:24:46;31.50;76.10
71672;DHT22;67659;45.554;11.812;2023-06-10T10:27:19;31.50;76.20
71672;DHT22;67659;45.554;11.812;2023-06-10T10:29:47;31.20;76.00
71672;DHT22;67659;45.554;11.812;2023-06-10T10:32:14;31.00;75.90
71672;DHT22;67659;45.554;11.812;2023-06-10T10:37:13;30.30;75.60
71672;DHT22;67659;45.554;11.812;2023-06-10T10:39:46;30.20;76.10
71672;DHT22;67659;45.554;11.812;2023-06-10T10:42:13;30.10;75.90
71672;DHT22;67659;45.554;11.812;2023-06-10T10:44:40;30.20;76.10
71672;DHT22;67659;45.554;11.812;2023-06-10T10:47:08;30.40;76.20
71672;DHT22;67659;45.554;11.812;2023-06-10T10:49:37;30.90;75.50
71672;DHT22;67659;45.554;11.812;2023-06-10T10:52:04;31.20;75.50
71672;DHT22;67659;45.554;11.812;2023-06-10T10:54:43;31.60;75.30
71672;DHT22;67659;45.554;11.812;2023-06-10T10:57:14;31.60;75.10
71672;DHT22;67659;45.554;11.812;2023-06-10T10:59:57;31.50;74.90
71672;DHT22;67659;45.554;11.812;2023-06-10T11:02:35;31.30;75.70
71672;DHT22;67659;45.554;11.812;2023-06-10T11:05:04;31.20;76.50
71672;DHT22;67659;45.554;11.812;2023-06-10T11:07:31;31.10;76.80
71672;DHT22;67659;45.554;11.812;2023-06-10T11:10:11;31.40;75.70
71672;DHT22;67659;45.554;11.812;2023-06-10T11:12:50;31.60;76.20
71672;DHT22;67659;45.554;11.812;2023-06-10T11:15:23;31.20;76.20
71672;DHT22;67659;45.554;11.812;2023-06-10T11:18:09;31.20;76.60
71672;DHT22;67659;45.554;11.812;2023-06-10T11:31:29;32.90;72.40
71672;DHT22;67659;45.554;11.812;2023-06-10T11:36:21;33.10;72.70
71672;DHT22;67659;45.554;11.812;2023-06-10T11:38:48;32.90;73.40
71672;DHT22;67659;45.554;11.812;2023-06-10T11:41:15;32.40;72.50
71672;DHT22;67659;45.554;11.812;2023-06-10T11:43:43;32.00;73.90
71672;DHT22;67659;45.554;11.812;2023-06-10T11:46:11;31.60;74.70
71672;DHT22;67659;45.554;11.812;2023-06-10T11:48:37;31.30;74.40
71672;DHT22;67659;45.554;11.812;2023-06-10T11:51:07;31.00;75.00
71672;DHT22;67659;45.554;11.812;2023-06-10T11:53:33;31.00;75.00
71672;DHT22;67659;45.554;11.812;2023-06-10T11:56:00;30.90;75.10
71672;DHT22;67659;45.554;11.812;2023-06-10T11:58:25;30.70;75.20
71672;DHT22;67659;45.554;11.812;2023-06-10T12:00:53;30.80;75.10
71672;DHT22;67659;45.554;11.812;2023-06-10T12:03:20;30.70;75.00
71672;DHT22;67659;45.554;11.812;2023-06-10T12:05:59;30.70;75.00
71672;DHT22;67659;45.554;11.812;2023-06-10T12:08:26;30.50;74.10
71672;DHT22;67659;45.554;11.812;2023-06-10T12:10:53;30.50;74.50
71672;DHT22;67659;45.554;11.812;2023-06-10T12:13:19;30.60;75.00
71672;DHT22;67659;45.554;11.812;2023-06-10T12:15:47;30.60;74.90
71672;DHT22;67659;45.554;11.812;2023-06-10T12:18:22;30.60;75.00
71672;DHT22;67659;45.554;11.812;2023-06-10T12:20:48;30.60;74.60
71672;DHT22;67659;45.554;11.812;2023-06-10T12:23:15;30.70;75.10
71672;DHT22;67659;45.554;11.812;2023-06-10T12:25:52;30.70;75.00
71672;DHT22;67659;45.554;11.812;2023-06-10T12:28:21;30.80;75.10
71672;DHT22;67659;45.554;11.812;2023-06-10T12:30:47;30.80;75.00
71672;DHT22;67659;45.554;11.812;2023-06-10T12:33:21;30.90;75.20
71672;DHT22;67659;45.554;11.812;2023-06-10T12:35:51;30.90;74.90
71672;DHT22;67659;45.554;11.812;2023-06-10T12:38:24;30.90;74.40
71672;DHT22;67659;45.554;11.812;2023-06-10T12:40:53;30.80;75.70
71672;DHT22;67659;45.554;11.812;2023-06-10T12:43:20;30.70;75.60
71672;DHT22;67659;45.554;11.812;2023-06-10T12:45:46;30.70;75.50
71672;DHT22;67659;45.554;11.812;2023-06-10T12:48:21;30.80;75.60
71672;DHT22;67659;45.554;11.812;2023-06-10T12:50:52;30.70;74.70
71672;DHT22;67659;45.554;11.812;2023-06-10T12:53:18;30.60;75.30
71672;DHT22;67659;45.554;11.812;2023-06-10T12:55:45;30.70;75.60
71672;DHT22;67659;45.554;11.812;2023-06-10T12:58:12;30.60;75.60
71672;DHT22;67659;45.554;11.812;2023-06-10T13:00:38;30.80;75.30
71672;DHT22;67659;45.554;11.812;2023-06-10T13:03:05;30.80;75.10
71672;DHT22;67659;45.554;11.812;2023-06-10T13:05:34;30.90;74.80
71672;DHT22;67659;45.554;11.812;2023-06-10T13:08:03;30.90;74.40
71672;DHT22;67659;45.554;11.812;2023-06-10T13:10:29;31.00;74.30
71672;DHT22;67659;45.554;11.812;2023-06-10T13:12:55;30.90;74.20
71672;DHT22;67659;45.554;11.812;2023-06-10T13:15:20;31.00;74.30
71672;DHT22;67659;45.554;11.812;2023-06-10T13:17:46;31.00;74.50
71672;DHT22;67659;45.554;11.812;2023-06-10T13:20:15;30.90;74.60
71672;DHT22;67659;45.554;11.812;2023-06-10T13:22:42;30.90;74.50
71672;DHT22;67659;45.554;11.812;2023-06-10T13:25:08;31.00;74.50
71672;DHT22;67659;45.554;11.812;2023-06-10T13:27:35;30.90;74.50
71672;DHT22;67659;45.554;11.812;2023-06-10T13:30:05;30.90;74.20
71672;DHT22;67659;45.554;11.812;2023-06-10T13:32:31;31.00;73.90
71672;DHT22;67659;45.554;11.812;2023-06-10T13:34:57;31.00;74.00
71672;DHT22;67659;45.554;11.812;2023-06-10T13:37:23;31.00;74.10
71672;DHT22;67659;45.554;11.812;2023-06-10T13:39:49;31.10;73.70
71672;DHT22;67659;45.554;11.812;2023-06-10T13:42:20;31.10;73.50
71672;DHT22;67659;45.554;11.812;2023-06-10T13:44:48;31.00;72.60
71672;DHT22;67659;45.554;11.812;2023-06-10T13:47:14;31.00;73.40
71672;DHT22;67659;45.554;11.812;2023-06-10T13:49:41;31.20;73.50
71672;DHT22;67659;45.554;11.812;2023-06-10T13:52:07;31.10;73.80
71672;DHT22;67659;45.554;11.812;2023-06-10T13:54:33;31.20;73.80
71672;DHT22;67659;45.554;11.812;2023-06-10T13:57:02;31.20;73.70
71672;DHT22;67659;45.554;11.812;2023-06-10T13:59:28;31.10;73.70
71672;DHT22;67659;45.554;11.812;2023-06-10T14:01:54;31.00;73.60
71672;DHT22;67659;45.554;11.812;2023-06-10T14:04:21;31.00;74.10
71672;DHT22;67659;45.554;11.812;2023-06-10T14:06:47;31.00;74.00
71672;DHT22;67659;45.554;11.812;2023-06-10T14:09:13;30.90;73.70
71672;DHT22;67659;45.554;11.812;2023-06-10T14:11:40;30.90;73.80
71672;DHT22;67659;45.554;11.812;2023-06-10T14:14:06;31.00;73.50
71672;DHT22;67659;45.554;11.812;2023-06-10T14:16:32;30.90;73.50
71672;DHT22;67659;45.554;11.812;2023-06-10T14:18:58;31.10;73.10
71672;DHT22;67659;45.554;11.812;2023-06-10T14:21:24;30.90;73.20
71672;DHT22;67659;45.554;11.812;2023-06-10T14:23:51;30.60;72.60
71672;DHT22;67659;45.554;11.812;2023-06-10T14:26:19;30.60;73.20
71672;DHT22;67659;45.554;11.812;2023-06-10T14:28:47;30.60;73.70
71672;DHT22;67659;45.554;11.812;2023-06-10T14:31:13;30.30;73.20
71672;DHT22;67659;45.554;11.812;2023-06-10T14:33:39;30.30;73.70
71672;DHT22;67659;45.554;11.812;2023-06-10T14:36:08;30.10;73.50
71672;DHT22;67659;45.554;11.812;2023-06-10T14:38:33;30.00;73.70
71672;DHT22;67659;45.554;11.812;2023-06-10T14:40:59;30.00;74.10
71672;DHT22;67659;45.554;11.812;2023-06-10T14:43:25;30.00;74.40
71672;DHT22;67659;45.554;11.812;2023-06-10T14:45:52;30.00;74.00
71672;DHT22;67659;45.554;11.812;2023-06-10T14:48:18;30.00;74.20
71672;DHT22;67659;45.554;11.812;2023-06-10T14:50:44;30.00;74.10
71672;DHT22;67659;45.554;11.812;2023-06-10T14:53:12;30.00;74.20
71672;DHT22;67659;45.554;11.812;2023-06-10T14:55:38;30.00;74.10
71672;DHT22;67659;45.554;11.812;2023-06-10T14:58:04;29.80;74.00
71672;DHT22;67659;45.554;11.812;2023-06-10T15:00:30;29.70;73.70
71672;DHT22;67659;45.554;11.812;2023-06-10T15:02:56;29.80;74.00
71672;DHT22;67659;45.554;11.812;2023-06-10T15:05:23;29.70;74.20
71672;DHT22;67659;45.554;11.812;2023-06-10T15:07:50;29.60;73.30
71672;DHT22;67659;45.554;11.812;2023-06-10T15:10:16;29.40;74.20
71672;DHT22;67659;45.554;11.812;2023-06-10T15:12:43;29.30;74.10
71672;DHT22;67659;45.554;11.812;2023-06-10T15:15:09;29.20;74.30
71672;DHT22;67659;45.554;11.812;2023-06-10T15:17:36;29.30;74.40
71672;DHT22;67659;45.554;11.812;2023-06-10T15:20:02;29.20;74.60
71672;DHT22;67659;45.554;11.812;2023-06-10T15:22:28;29.20;74.50
71672;DHT22;67659;45.554;11.812;2023-06-10T15:24:54;29.30;74.60
71672;DHT22;67659;45.554;11.812;2023-06-10T15:27:21;29.20;74.70
71672;DHT22;67659;45.554;11.812;2023-06-10T15:29:47;29.20;74.80
71672;DHT22;67659;45.554;11.812;2023-06-10T15:32:13;29.20;74.30
71672;DHT22;67659;45.554;11.812;2023-06-10T15:34:39;29.20;74.60
71672;DHT22;67659;45.554;11.812;2023-06-10T15:37:05;29.20;74.40
71672;DHT22;67659;45.554;11.812;2023-06-10T15:39:31;29.20;74.50